Terminal Aerodrome Forecast
Issued by NWS Wilmington, NC

Home | Current Version | Previous Version | Text Only | Print | Product List | Glossary On
Versions: 1 2 3 4 5 6 7 8 9 10 11 12 13 14 15 16 17
000
FTUS42 KILM 301720
TAFFLO
TAF
KFLO 301720Z 3018/3118 VRB04KT P6SM VCSH SCT050
     FM302100 07006KT P6SM VCTS SCT050CB BKN250
     FM310000 15004KT P6SM VCSH SCT040 SCT250
     FM311200 35005KT P6SM SCT040 BKN250=

USA.gov is the U.S. government's official web portal to all federal, state and local government web resources and services.